sensor_id;sensor_type;location;lat;lon;timestamp;P1;durP1;ratioP1;P2;durP2;ratioP2
60472;SDS011;46318;52.716;6.444;2022-08-01T00:01:06;11.25;;;8.07;;
60472;SDS011;46318;52.716;6.444;2022-08-01T00:03:32;10.32;;;8.73;;
60472;SDS011;46318;52.716;6.444;2022-08-01T00:05:58;9.60;;;8.45;;
60472;SDS011;46318;52.716;6.444;2022-08-01T00:08:23;11.15;;;9.32;;
60472;SDS011;46318;52.716;6.444;2022-08-01T00:10:49;11.48;;;9.27;;
60472;SDS011;46318;52.716;6.444;2022-08-01T00:13:15;10.70;;;9.45;;
60472;SDS011;46318;52.716;6.444;2022-08-01T00:15:41;10.23;;;9.23;;
60472;SDS011;46318;52.716;6.444;2022-08-01T00:18:07;10.32;;;8.98;;
60472;SDS011;46318;52.716;6.444;2022-08-01T00:20:33;12.00;;;9.70;;
60472;SDS011;46318;52.716;6.444;2022-08-01T00:22:58;9.38;;;8.48;;
60472;SDS011;46318;52.716;6.444;2022-08-01T00:25:27;10.20;;;8.38;;
60472;SDS011;46318;52.716;6.444;2022-08-01T00:27:53;10.57;;;8.48;;
60472;SDS011;46318;52.716;6.444;2022-08-01T00:30:19;8.75;;;7.90;;
60472;SDS011;46318;52.716;6.444;2022-08-01T00:32:45;8.95;;;8.10;;
60472;SDS011;46318;52.716;6.444;2022-08-01T00:35:11;11.52;;;9.27;;
60472;SDS011;46318;52.716;6.444;2022-08-01T00:37:38;10.23;;;9.15;;
60472;SDS011;46318;52.716;6.444;2022-08-01T00:40:04;10.70;;;7.97;;
60472;SDS011;46318;52.716;6.444;2022-08-01T00:42:31;9.73;;;8.30;;
60472;SDS011;46318;52.716;6.444;2022-08-01T00:44:57;9.60;;;8.35;;
60472;SDS011;46318;52.716;6.444;2022-08-01T00:47:23;10.27;;;8.43;;
60472;SDS011;46318;52.716;6.444;2022-08-01T00:49:49;10.90;;;8.60;;
60472;SDS011;46318;52.716;6.444;2022-08-01T00:52:15;12.65;;;9.55;;
60472;SDS011;46318;52.716;6.444;2022-08-01T00:54:41;10.30;;;8.93;;
60472;SDS011;46318;52.716;6.444;2022-08-01T00:57:07;11.43;;;9.63;;
60472;SDS011;46318;52.716;6.444;2022-08-01T00:59:33;12.52;;;9.02;;
60472;SDS011;46318;52.716;6.444;2022-08-01T01:01:59;14.40;;;10.43;;
60472;SDS011;46318;52.716;6.444;2022-08-01T01:04:25;12.40;;;9.68;;
60472;SDS011;46318;52.716;6.444;2022-08-01T01:07:01;11.65;;;9.80;;
60472;SDS011;46318;52.716;6.444;2022-08-01T01:09:45;11.75;;;9.40;;
60472;SDS011;46318;52.716;6.444;2022-08-01T01:12:36;12.57;;;9.73;;
60472;SDS011;46318;52.716;6.444;2022-08-01T01:15:22;9.90;;;8.90;;
60472;SDS011;46318;52.716;6.444;2022-08-01T01:18:09;9.45;;;8.05;;
60472;SDS011;46318;52.716;6.444;2022-08-01T01:20:37;9.90;;;8.90;;
60472;SDS011;46318;52.716;6.444;2022-08-01T01:26:36;10.80;;;9.20;;
60472;SDS011;46318;52.716;6.444;2022-08-01T01:29:17;11.90;;;8.77;;
60472;SDS011;46318;52.716;6.444;2022-08-01T01:34:36;9.95;;;8.82;;
60472;SDS011;46318;52.716;6.444;2022-08-01T01:37:06;10.38;;;9.35;;
60472;SDS011;46318;52.716;6.444;2022-08-01T01:39:36;11.15;;;8.48;;
60472;SDS011;46318;52.716;6.444;2022-08-01T01:42:04;9.73;;;8.57;;
60472;SDS011;46318;52.716;6.444;2022-08-01T01:44:31;10.20;;;9.15;;
60472;SDS011;46318;52.716;6.444;2022-08-01T01:46:59;9.93;;;8.45;;
60472;SDS011;46318;52.716;6.444;2022-08-01T01:49:27;10.85;;;9.32;;
60472;SDS011;46318;52.716;6.444;2022-08-01T01:51:54;8.32;;;7.45;;
60472;SDS011;46318;52.716;6.444;2022-08-01T01:54:23;9.07;;;8.07;;
60472;SDS011;46318;52.716;6.444;2022-08-01T01:56:55;10.98;;;7.63;;
60472;SDS011;46318;52.716;6.444;2022-08-01T01:59:28;9.65;;;8.10;;
60472;SDS011;46318;52.716;6.444;2022-08-01T02:01:58;9.32;;;8.32;;
60472;SDS011;46318;52.716;6.444;2022-08-01T02:04:27;8.68;;;7.70;;
60472;SDS011;46318;52.716;6.444;2022-08-01T02:06:55;10.25;;;8.05;;
60472;SDS011;46318;52.716;6.444;2022-08-01T02:09:22;8.20;;;7.40;;
60472;SDS011;46318;52.716;6.444;2022-08-01T02:11:50;9.05;;;7.93;;
60472;SDS011;46318;52.716;6.444;2022-08-01T02:14:16;10.20;;;7.95;;
60472;SDS011;46318;52.716;6.444;2022-08-01T02:16:46;7.43;;;6.72;;
60472;SDS011;46318;52.716;6.444;2022-08-01T02:19:14;7.53;;;6.80;;
60472;SDS011;46318;52.716;6.444;2022-08-01T02:21:49;6.88;;;6.18;;
60472;SDS011;46318;52.716;6.444;2022-08-01T02:27:16;6.53;;;5.90;;
60472;SDS011;46318;52.716;6.444;2022-08-01T02:29:52;6.53;;;5.78;;
60472;SDS011;46318;52.716;6.444;2022-08-01T02:32:27;7.13;;;6.38;;
60472;SDS011;46318;52.716;6.444;2022-08-01T02:35:02;7.68;;;5.72;;
60472;SDS011;46318;52.716;6.444;2022-08-01T02:37:33;6.03;;;5.53;;
60472;SDS011;46318;52.716;6.444;2022-08-01T02:40:01;6.72;;;5.82;;
60472;SDS011;46318;52.716;6.444;2022-08-01T02:42:28;6.68;;;6.05;;
60472;SDS011;46318;52.716;6.444;2022-08-01T02:44:56;7.10;;;6.40;;
60472;SDS011;46318;52.716;6.444;2022-08-01T02:47:23;6.95;;;6.20;;
60472;SDS011;46318;52.716;6.444;2022-08-01T02:49:52;7.32;;;6.07;;
60472;SDS011;46318;52.716;6.444;2022-08-01T02:52:21;8.57;;;6.47;;
60472;SDS011;46318;52.716;6.444;2022-08-01T02:54:51;7.65;;;6.35;;
60472;SDS011;46318;52.716;6.444;2022-08-01T02:57:20;8.40;;;6.47;;
60472;SDS011;46318;52.716;6.444;2022-08-01T02:59:48;7.35;;;6.57;;
60472;SDS011;46318;52.716;6.444;2022-08-01T03:02:16;7.10;;;6.30;;
60472;SDS011;46318;52.716;6.444;2022-08-01T03:04:42;6.68;;;5.97;;
60472;SDS011;46318;52.716;6.444;2022-08-01T03:07:10;6.88;;;6.20;;
60472;SDS011;46318;52.716;6.444;2022-08-01T03:09:38;7.90;;;6.47;;
60472;SDS011;46318;52.716;6.444;2022-08-01T03:12:13;6.50;;;5.78;;
60472;SDS011;46318;52.716;6.444;2022-08-01T03:14:44;8.05;;;5.43;;
60472;SDS011;46318;52.716;6.444;2022-08-01T03:17:13;7.82;;;6.65;;
60472;SDS011;46318;52.716;6.444;2022-08-01T03:19:41;8.60;;;7.30;;
60472;SDS011;46318;52.716;6.444;2022-08-01T03:22:11;7.20;;;6.25;;
60472;SDS011;46318;52.716;6.444;2022-08-01T03:24:40;9.25;;;6.95;;
60472;SDS011;46318;52.716;6.444;2022-08-01T03:27:08;9.98;;;6.63;;
60472;SDS011;46318;52.716;6.444;2022-08-01T03:29:35;7.10;;;6.40;;
60472;SDS011;46318;52.716;6.444;2022-08-01T03:32:02;8.48;;;6.65;;
60472;SDS011;46318;52.716;6.444;2022-08-01T03:34:28;7.97;;;5.75;;
60472;SDS011;46318;52.716;6.444;2022-08-01T03:39:55;6.97;;;4.38;;
60472;SDS011;46318;52.716;6.444;2022-08-01T03:42:35;4.30;;;3.83;;
60472;SDS011;46318;52.716;6.444;2022-08-01T03:45:08;4.55;;;3.70;;
60472;SDS011;46318;52.716;6.444;2022-08-01T03:47:37;3.90;;;2.88;;
60472;SDS011;46318;52.716;6.444;2022-08-01T03:50:07;4.07;;;2.88;;
60472;SDS011;46318;52.716;6.444;2022-08-01T03:52:35;5.15;;;3.28;;
60472;SDS011;46318;52.716;6.444;2022-08-01T03:55:05;5.10;;;3.10;;
60472;SDS011;46318;52.716;6.444;2022-08-01T03:57:33;4.30;;;3.90;;
60472;SDS011;46318;52.716;6.444;2022-08-01T03:59:59;8.23;;;3.38;;
60472;SDS011;46318;52.716;6.444;2022-08-01T04:02:26;7.43;;;3.63;;
60472;SDS011;46318;52.716;6.444;2022-08-01T04:04:53;4.88;;;3.40;;
60472;SDS011;46318;52.716;6.444;2022-08-01T04:07:21;8.15;;;3.55;;
60472;SDS011;46318;52.716;6.444;2022-08-01T04:09:49;5.72;;;3.30;;
60472;SDS011;46318;52.716;6.444;2022-08-01T04:12:16;6.55;;;3.67;;
60472;SDS011;46318;52.716;6.444;2022-08-01T04:14:42;6.95;;;3.35;;
60472;SDS011;46318;52.716;6.444;2022-08-01T04:17:08;5.63;;;3.75;;
60472;SDS011;46318;52.716;6.444;2022-08-01T04:19:37;5.45;;;3.05;;
60472;SDS011;46318;52.716;6.444;2022-08-01T04:22:03;6.20;;;3.63;;
60472;SDS011;46318;52.716;6.444;2022-08-01T04:24:30;7.75;;;3.42;;
60472;SDS011;46318;52.716;6.444;2022-08-01T04:27:00;7.05;;;3.80;;
60472;SDS011;46318;52.716;6.444;2022-08-01T04:29:27;5.95;;;3.50;;
60472;SDS011;46318;52.716;6.444;2022-08-01T04:31:55;5.68;;;3.20;;
60472;SDS011;46318;52.716;6.444;2022-08-01T04:34:25;6.38;;;3.80;;
60472;SDS011;46318;52.716;6.444;2022-08-01T04:36:56;6.97;;;3.72;;
60472;SDS011;46318;52.716;6.444;2022-08-01T04:39:28;3.97;;;3.30;;
60472;SDS011;46318;52.716;6.444;2022-08-01T04:41:57;4.75;;;3.55;;
60472;SDS011;46318;52.716;6.444;2022-08-01T04:44:25;5.28;;;3.78;;
60472;SDS011;46318;52.716;6.444;2022-08-01T04:46:53;4.28;;;3.30;;
60472;SDS011;46318;52.716;6.444;2022-08-01T04:49:23;5.60;;;4.20;;
60472;SDS011;46318;52.716;6.444;2022-08-01T04:51:50;7.03;;;3.78;;
60472;SDS011;46318;52.716;6.444;2022-08-01T04:54:25;7.32;;;4.15;;
60472;SDS011;46318;52.716;6.444;2022-08-01T04:56:55;5.55;;;4.10;;
60472;SDS011;46318;52.716;6.444;2022-08-01T04:59:25;7.07;;;3.58;;
60472;SDS011;46318;52.716;6.444;2022-08-01T05:02:16;9.85;;;3.47;;
60472;SDS011;46318;52.716;6.444;2022-08-01T05:04:44;7.13;;;4.20;;
60472;SDS011;46318;52.716;6.444;2022-08-01T05:07:11;7.57;;;3.85;;
60472;SDS011;46318;52.716;6.444;2022-08-01T05:09:38;6.22;;;3.70;;
60472;SDS011;46318;52.716;6.444;2022-08-01T05:12:11;8.38;;;3.80;;
60472;SDS011;46318;52.716;6.444;2022-08-01T05:14:37;10.18;;;4.35;;
60472;SDS011;46318;52.716;6.444;2022-08-01T05:17:04;6.78;;;4.07;;
60472;SDS011;46318;52.716;6.444;2022-08-01T05:19:32;10.80;;;4.25;;
60472;SDS011;46318;52.716;6.444;2022-08-01T05:22:00;10.80;;;4.60;;
60472;SDS011;46318;52.716;6.444;2022-08-01T05:24:32;11.57;;;4.40;;
60472;SDS011;46318;52.716;6.444;2022-08-01T05:26:59;10.35;;;4.57;;
60472;SDS011;46318;52.716;6.444;2022-08-01T05:29:25;8.93;;;4.80;;
60472;SDS011;46318;52.716;6.444;2022-08-01T05:31:52;8.52;;;4.10;;
60472;SDS011;46318;52.716;6.444;2022-08-01T05:34:18;9.38;;;4.70;;
60472;SDS011;46318;52.716;6.444;2022-08-01T05:36:45;11.98;;;5.20;;
60472;SDS011;46318;52.716;6.444;2022-08-01T05:39:11;12.40;;;5.47;;
60472;SDS011;46318;52.716;6.444;2022-08-01T05:41:38;11.07;;;4.65;;
60472;SDS011;46318;52.716;6.444;2022-08-01T05:44:05;9.20;;;5.03;;
60472;SDS011;46318;52.716;6.444;2022-08-01T05:46:31;10.55;;;4.93;;
60472;SDS011;46318;52.716;6.444;2022-08-01T05:48:58;8.82;;;4.47;;
60472;SDS011;46318;52.716;6.444;2022-08-01T05:51:26;13.23;;;4.93;;
60472;SDS011;46318;52.716;6.444;2022-08-01T05:53:52;10.77;;;4.45;;
60472;SDS011;46318;52.716;6.444;2022-08-01T05:56:19;11.18;;;4.60;;
60472;SDS011;46318;52.716;6.444;2022-08-01T05:58:46;12.00;;;4.60;;
60472;SDS011;46318;52.716;6.444;2022-08-01T06:01:14;16.40;;;4.72;;
60472;SDS011;46318;52.716;6.444;2022-08-01T06:03:42;12.38;;;4.90;;
60472;SDS011;46318;52.716;6.444;2022-08-01T06:06:08;17.20;;;4.55;;
60472;SDS011;46318;52.716;6.444;2022-08-01T06:08:34;10.68;;;4.18;;
60472;SDS011;46318;52.716;6.444;2022-08-01T06:11:00;10.40;;;4.78;;
60472;SDS011;46318;52.716;6.444;2022-08-01T06:13:26;12.23;;;4.50;;
60472;SDS011;46318;52.716;6.444;2022-08-01T06:15:51;11.77;;;4.25;;
60472;SDS011;46318;52.716;6.444;2022-08-01T06:18:17;16.20;;;4.93;;
60472;SDS011;46318;52.716;6.444;2022-08-01T06:20:44;15.10;;;4.95;;
60472;SDS011;46318;52.716;6.444;2022-08-01T06:23:10;10.63;;;4.78;;
60472;SDS011;46318;52.716;6.444;2022-08-01T06:25:36;12.43;;;4.68;;
60472;SDS011;46318;52.716;6.444;2022-08-01T06:28:02;10.10;;;4.05;;
60472;SDS011;46318;52.716;6.444;2022-08-01T06:30:28;13.18;;;4.20;;
60472;SDS011;46318;52.716;6.444;2022-08-01T06:32:54;11.07;;;3.90;;
60472;SDS011;46318;52.716;6.444;2022-08-01T06:35:24;11.05;;;4.60;;
60472;SDS011;46318;52.716;6.444;2022-08-01T06:37:54;12.10;;;4.63;;
60472;SDS011;46318;52.716;6.444;2022-08-01T06:40:21;14.55;;;4.85;;
60472;SDS011;46318;52.716;6.444;2022-08-01T06:42:47;15.40;;;4.40;;
60472;SDS011;46318;52.716;6.444;2022-08-01T06:45:13;16.45;;;4.32;;
60472;SDS011;46318;52.716;6.444;2022-08-01T06:47:41;13.30;;;4.45;;
60472;SDS011;46318;52.716;6.444;2022-08-01T06:50:08;16.15;;;4.28;;
60472;SDS011;46318;52.716;6.444;2022-08-01T06:52:35;15.90;;;4.40;;
60472;SDS011;46318;52.716;6.444;2022-08-01T06:55:02;12.82;;;4.75;;
60472;SDS011;46318;52.716;6.444;2022-08-01T06:57:29;14.27;;;4.22;;
60472;SDS011;46318;52.716;6.444;2022-08-01T06:59:55;15.57;;;4.43;;
60472;SDS011;46318;52.716;6.444;2022-08-01T07:02:22;12.07;;;5.18;;
60472;SDS011;46318;52.716;6.444;2022-08-01T07:04:48;17.35;;;4.97;;
60472;SDS011;46318;52.716;6.444;2022-08-01T07:07:14;15.48;;;4.72;;
60472;SDS011;46318;52.716;6.444;2022-08-01T07:09:40;15.05;;;4.38;;
60472;SDS011;46318;52.716;6.444;2022-08-01T07:12:07;14.75;;;3.90;;
60472;SDS011;46318;52.716;6.444;2022-08-01T07:14:33;15.93;;;4.97;;
60472;SDS011;46318;52.716;6.444;2022-08-01T07:16:59;16.90;;;5.03;;
60472;SDS011;46318;52.716;6.444;2022-08-01T07:19:25;11.60;;;4.22;;
60472;SDS011;46318;52.716;6.444;2022-08-01T07:21:50;18.85;;;5.07;;
60472;SDS011;46318;52.716;6.444;2022-08-01T07:24:16;13.23;;;4.40;;
60472;SDS011;46318;52.716;6.444;2022-08-01T07:26:43;13.50;;;3.92;;
60472;SDS011;46318;52.716;6.444;2022-08-01T07:29:11;14.32;;;4.28;;
60472;SDS011;46318;52.716;6.444;2022-08-01T07:31:37;10.70;;;3.58;;
60472;SDS011;46318;52.716;6.444;2022-08-01T07:34:03;19.65;;;4.55;;
60472;SDS011;46318;52.716;6.444;2022-08-01T07:36:29;15.65;;;4.05;;
60472;SDS011;46318;52.716;6.444;2022-08-01T07:38:55;13.85;;;4.28;;
60472;SDS011;46318;52.716;6.444;2022-08-01T07:41:21;19.55;;;4.78;;
60472;SDS011;46318;52.716;6.444;2022-08-01T07:43:48;13.48;;;4.55;;
60472;SDS011;46318;52.716;6.444;2022-08-01T07:46:14;16.98;;;4.45;;
60472;SDS011;46318;52.716;6.444;2022-08-01T07:48:40;16.05;;;5.10;;
60472;SDS011;46318;52.716;6.444;2022-08-01T07:51:06;16.52;;;4.55;;
60472;SDS011;46318;52.716;6.444;2022-08-01T07:53:34;11.85;;;4.10;;
60472;SDS011;46318;52.716;6.444;2022-08-01T07:55:59;14.30;;;3.85;;
60472;SDS011;46318;52.716;6.444;2022-08-01T07:58:27;19.95;;;4.60;;
60472;SDS011;46318;52.716;6.444;2022-08-01T08:00:53;15.40;;;4.60;;
60472;SDS011;46318;52.716;6.444;2022-08-01T08:03:19;12.38;;;4.10;;
60472;SDS011;46318;52.716;6.444;2022-08-01T08:05:44;15.88;;;4.72;;
60472;SDS011;46318;52.716;6.444;2022-08-01T08:08:10;10.90;;;3.15;;
60472;SDS011;46318;52.716;6.444;2022-08-01T08:10:36;18.45;;;4.97;;
60472;SDS011;46318;52.716;6.444;2022-08-01T08:13:02;15.15;;;4.00;;
60472;SDS011;46318;52.716;6.444;2022-08-01T08:15:28;16.15;;;4.35;;
60472;SDS011;46318;52.716;6.444;2022-08-01T08:17:54;9.10;;;3.47;;
60472;SDS011;46318;52.716;6.444;2022-08-01T08:20:20;14.70;;;4.13;;
60472;SDS011;46318;52.716;6.444;2022-08-01T08:22:50;14.98;;;4.10;;
60472;SDS011;46318;52.716;6.444;2022-08-01T08:25:16;11.65;;;4.07;;
60472;SDS011;46318;52.716;6.444;2022-08-01T08:27:44;13.63;;;4.35;;
60472;SDS011;46318;52.716;6.444;2022-08-01T08:30:11;14.00;;;3.55;;
60472;SDS011;46318;52.716;6.444;2022-08-01T08:32:37;11.68;;;4.00;;
60472;SDS011;46318;52.716;6.444;2022-08-01T08:35:04;15.02;;;4.00;;
60472;SDS011;46318;52.716;6.444;2022-08-01T08:37:31;9.52;;;3.50;;
60472;SDS011;46318;52.716;6.444;2022-08-01T08:39:58;15.35;;;4.75;;
60472;SDS011;46318;52.716;6.444;2022-08-01T08:42:24;11.68;;;3.20;;
60472;SDS011;46318;52.716;6.444;2022-08-01T08:44:50;13.93;;;3.63;;
60472;SDS011;46318;52.716;6.444;2022-08-01T08:47:16;10.20;;;3.58;;
60472;SDS011;46318;52.716;6.444;2022-08-01T08:49:44;14.65;;;3.90;;
60472;SDS011;46318;52.716;6.444;2022-08-01T08:52:10;11.52;;;3.90;;
60472;SDS011;46318;52.716;6.444;2022-08-01T08:54:37;11.90;;;3.72;;
60472;SDS011;46318;52.716;6.444;2022-08-01T08:57:06;11.80;;;2.92;;
60472;SDS011;46318;52.716;6.444;2022-08-01T08:59:32;15.35;;;3.40;;
60472;SDS011;46318;52.716;6.444;2022-08-01T09:01:58;14.95;;;3.20;;
60472;SDS011;46318;52.716;6.444;2022-08-01T09:04:25;8.82;;;3.20;;
60472;SDS011;46318;52.716;6.444;2022-08-01T09:06:51;11.00;;;2.95;;
60472;SDS011;46318;52.716;6.444;2022-08-01T09:09:19;8.13;;;2.50;;
60472;SDS011;46318;52.716;6.444;2022-08-01T09:11:44;6.80;;;2.33;;
60472;SDS011;46318;52.716;6.444;2022-08-01T09:16:47;9.88;;;2.90;;
60472;SDS011;46318;52.716;6.444;2022-08-01T09:19:37;8.68;;;2.80;;
60472;SDS011;46318;52.716;6.444;2022-08-01T09:22:09;9.18;;;2.70;;
60472;SDS011;46318;52.716;6.444;2022-08-01T09:24:39;9.18;;;3.75;;
60472;SDS011;46318;52.716;6.444;2022-08-01T09:27:19;8.73;;;2.78;;
60472;SDS011;46318;52.716;6.444;2022-08-01T09:29:50;7.63;;;2.72;;
60472;SDS011;46318;52.716;6.444;2022-08-01T09:32:19;9.85;;;2.55;;
60472;SDS011;46318;52.716;6.444;2022-08-01T09:34:45;8.70;;;2.45;;
60472;SDS011;46318;52.716;6.444;2022-08-01T09:37:12;10.18;;;2.85;;
60472;SDS011;46318;52.716;6.444;2022-08-01T09:39:42;10.27;;;2.80;;
60472;SDS011;46318;52.716;6.444;2022-08-01T09:42:21;10.02;;;2.83;;
60472;SDS011;46318;52.716;6.444;2022-08-01T09:44:50;16.45;;;3.17;;
60472;SDS011;46318;52.716;6.444;2022-08-01T09:47:16;9.63;;;2.95;;
60472;SDS011;46318;52.716;6.444;2022-08-01T09:49:46;9.43;;;2.70;;
60472;SDS011;46318;52.716;6.444;2022-08-01T09:52:21;7.30;;;2.58;;
60472;SDS011;46318;52.716;6.444;2022-08-01T09:54:53;6.93;;;2.53;;
60472;SDS011;46318;52.716;6.444;2022-08-01T09:57:24;8.68;;;2.45;;
60472;SDS011;46318;52.716;6.444;2022-08-01T09:59:52;8.00;;;2.85;;
60472;SDS011;46318;52.716;6.444;2022-08-01T10:05:09;9.02;;;2.95;;
60472;SDS011;46318;52.716;6.444;2022-08-01T10:07:36;11.35;;;2.42;;
60472;SDS011;46318;52.716;6.444;2022-08-01T10:10:22;9.23;;;2.40;;
60472;SDS011;46318;52.716;6.444;2022-08-01T10:12:47;9.85;;;2.20;;
60472;SDS011;46318;52.716;6.444;2022-08-01T10:15:15;6.55;;;2.20;;
60472;SDS011;46318;52.716;6.444;2022-08-01T10:17:46;9.35;;;2.60;;
60472;SDS011;46318;52.716;6.444;2022-08-01T10:20:23;6.82;;;2.92;;
60472;SDS011;46318;52.716;6.444;2022-08-01T10:22:55;10.18;;;2.30;;
60472;SDS011;46318;52.716;6.444;2022-08-01T10:25:28;12.05;;;2.20;;
60472;SDS011;46318;52.716;6.444;2022-08-01T10:30:26;8.93;;;2.10;;
60472;SDS011;46318;52.716;6.444;2022-08-01T10:32:53;6.43;;;2.10;;
60472;SDS011;46318;52.716;6.444;2022-08-01T10:35:20;7.80;;;2.00;;
60472;SDS011;46318;52.716;6.444;2022-08-01T10:37:47;7.28;;;2.20;;
60472;SDS011;46318;52.716;6.444;2022-08-01T10:40:16;11.10;;;2.33;;
60472;SDS011;46318;52.716;6.444;2022-08-01T10:42:45;7.32;;;2.20;;
60472;SDS011;46318;52.716;6.444;2022-08-01T10:45:11;7.43;;;2.20;;
60472;SDS011;46318;52.716;6.444;2022-08-01T10:50:37;6.28;;;2.17;;
60472;SDS011;46318;52.716;6.444;2022-08-01T10:53:11;6.75;;;1.90;;
60472;SDS011;46318;52.716;6.444;2022-08-01T10:55:52;5.13;;;1.92;;
60472;SDS011;46318;52.716;6.444;2022-08-01T10:58:21;6.05;;;2.03;;
60472;SDS011;46318;52.716;6.444;2022-08-01T11:03:45;4.93;;;2.03;;
60472;SDS011;46318;52.716;6.444;2022-08-01T11:06:24;8.15;;;2.10;;
60472;SDS011;46318;52.716;6.444;2022-08-01T11:09:15;5.93;;;2.00;;
60472;SDS011;46318;52.716;6.444;2022-08-01T11:12:06;4.63;;;1.90;;
60472;SDS011;46318;52.716;6.444;2022-08-01T11:17:35;4.95;;;1.73;;
60472;SDS011;46318;52.716;6.444;2022-08-01T11:28:26;6.72;;;1.92;;
60472;SDS011;46318;52.716;6.444;2022-08-01T11:31:25;5.07;;;2.33;;
60472;SDS011;46318;52.716;6.444;2022-08-01T11:41:23;5.47;;;2.00;;
60472;SDS011;46318;52.716;6.444;2022-08-01T11:43:56;4.28;;;1.52;;
60472;SDS011;46318;52.716;6.444;2022-08-01T11:46:51;6.05;;;1.83;;
60472;SDS011;46318;52.716;6.444;2022-08-01T11:52:08;5.68;;;1.75;;
60472;SDS011;46318;52.716;6.444;2022-08-01T11:54:54;5.20;;;1.80;;
60472;SDS011;46318;52.716;6.444;2022-08-01T11:57:24;4.70;;;1.70;;
60472;SDS011;46318;52.716;6.444;2022-08-01T12:00:00;6.43;;;2.47;;
60472;SDS011;46318;52.716;6.444;2022-08-01T12:05:10;6.07;;;1.55;;
60472;SDS011;46318;52.716;6.444;2022-08-01T12:07:43;8.10;;;1.80;;
60472;SDS011;46318;52.716;6.444;2022-08-01T12:10:12;5.30;;;1.60;;
60472;SDS011;46318;52.716;6.444;2022-08-01T12:12:44;6.40;;;2.10;;
60472;SDS011;46318;52.716;6.444;2022-08-01T12:15:23;7.18;;;2.08;;
60472;SDS011;46318;52.716;6.444;2022-08-01T12:17:58;6.35;;;1.83;;
60472;SDS011;46318;52.716;6.444;2022-08-01T12:20:27;3.85;;;1.48;;
60472;SDS011;46318;52.716;6.444;2022-08-01T12:22:59;4.50;;;1.70;;
60472;SDS011;46318;52.716;6.444;2022-08-01T12:25:31;5.13;;;1.90;;
60472;SDS011;46318;52.716;6.444;2022-08-01T12:28:03;3.67;;;1.60;;
60472;SDS011;46318;52.716;6.444;2022-08-01T12:30:35;5.15;;;1.80;;
60472;SDS011;46318;52.716;6.444;2022-08-01T12:33:03;5.65;;;1.90;;
60472;SDS011;46318;52.716;6.444;2022-08-01T12:35:31;8.02;;;2.00;;
60472;SDS011;46318;52.716;6.444;2022-08-01T12:37:59;4.38;;;1.65;;
60472;SDS011;46318;52.716;6.444;2022-08-01T12:40:29;5.40;;;1.60;;
60472;SDS011;46318;52.716;6.444;2022-08-01T12:43:01;4.03;;;1.30;;
60472;SDS011;46318;52.716;6.444;2022-08-01T12:45:31;4.63;;;1.63;;
60472;SDS011;46318;52.716;6.444;2022-08-01T12:48:03;5.45;;;1.73;;
60472;SDS011;46318;52.716;6.444;2022-08-01T12:50:35;5.35;;;1.70;;
60472;SDS011;46318;52.716;6.444;2022-08-01T12:53:04;5.53;;;1.80;;
60472;SDS011;46318;52.716;6.444;2022-08-01T12:55:30;4.75;;;1.60;;
60472;SDS011;46318;52.716;6.444;2022-08-01T12:58:10;3.15;;;1.50;;
60472;SDS011;46318;52.716;6.444;2022-08-01T13:00:38;5.60;;;1.50;;
60472;SDS011;46318;52.716;6.444;2022-08-01T13:03:17;6.43;;;1.85;;
60472;SDS011;46318;52.716;6.444;2022-08-01T13:11:03;5.15;;;1.50;;
60472;SDS011;46318;52.716;6.444;2022-08-01T13:16:13;4.28;;;1.33;;
60472;SDS011;46318;52.716;6.444;2022-08-01T13:18:41;3.03;;;1.67;;
60472;SDS011;46318;52.716;6.444;2022-08-01T13:21:20;6.00;;;1.63;;
60472;SDS011;46318;52.716;6.444;2022-08-01T13:24:07;3.50;;;1.33;;
60472;SDS011;46318;52.716;6.444;2022-08-01T13:29:09;6.75;;;1.83;;
60472;SDS011;46318;52.716;6.444;2022-08-01T13:31:38;2.92;;;1.63;;
60472;SDS011;46318;52.716;6.444;2022-08-01T13:34:05;5.60;;;1.85;;
60472;SDS011;46318;52.716;6.444;2022-08-01T13:36:31;5.00;;;1.88;;
60472;SDS011;46318;52.716;6.444;2022-08-01T13:38:58;3.20;;;1.30;;
60472;SDS011;46318;52.716;6.444;2022-08-01T13:41:57;4.65;;;1.50;;
60472;SDS011;46318;52.716;6.444;2022-08-01T13:44:23;6.65;;;1.58;;
60472;SDS011;46318;52.716;6.444;2022-08-01T13:46:48;5.07;;;1.52;;
60472;SDS011;46318;52.716;6.444;2022-08-01T13:49:14;7.15;;;1.63;;
60472;SDS011;46318;52.716;6.444;2022-08-01T13:51:41;9.02;;;1.83;;
60472;SDS011;46318;52.716;6.444;2022-08-01T13:54:07;6.53;;;1.90;;
60472;SDS011;46318;52.716;6.444;2022-08-01T13:56:33;5.65;;;1.67;;
60472;SDS011;46318;52.716;6.444;2022-08-01T13:58:59;3.67;;;1.40;;
60472;SDS011;46318;52.716;6.444;2022-08-01T14:01:26;3.30;;;1.65;;
60472;SDS011;46318;52.716;6.444;2022-08-01T14:03:52;5.38;;;1.50;;
60472;SDS011;46318;52.716;6.444;2022-08-01T14:06:21;4.85;;;1.60;;
60472;SDS011;46318;52.716;6.444;2022-08-01T14:08:47;7.18;;;1.85;;
60472;SDS011;46318;52.716;6.444;2022-08-01T14:11:13;3.88;;;1.70;;
60472;SDS011;46318;52.716;6.444;2022-08-01T14:13:39;4.63;;;1.45;;
60472;SDS011;46318;52.716;6.444;2022-08-01T14:16:05;2.35;;;1.40;;
60472;SDS011;46318;52.716;6.444;2022-08-01T14:18:32;5.53;;;1.40;;
60472;SDS011;46318;52.716;6.444;2022-08-01T14:20:58;4.25;;;1.40;;
60472;SDS011;46318;52.716;6.444;2022-08-01T14:23:24;5.40;;;1.50;;
60472;SDS011;46318;52.716;6.444;2022-08-01T14:25:51;4.60;;;1.38;;
60472;SDS011;46318;52.716;6.444;2022-08-01T14:28:20;5.18;;;1.73;;
60472;SDS011;46318;52.716;6.444;2022-08-01T14:30:46;3.00;;;0.98;;
60472;SDS011;46318;52.716;6.444;2022-08-01T14:33:12;4.35;;;1.50;;
60472;SDS011;46318;52.716;6.444;2022-08-01T14:35:39;2.90;;;1.30;;
60472;SDS011;46318;52.716;6.444;2022-08-01T14:38:05;5.03;;;1.58;;
60472;SDS011;46318;52.716;6.444;2022-08-01T14:40:32;3.22;;;1.33;;
60472;SDS011;46318;52.716;6.444;2022-08-01T14:42:58;6.80;;;1.77;;
60472;SDS011;46318;52.716;6.444;2022-08-01T14:45:26;3.28;;;1.50;;
60472;SDS011;46318;52.716;6.444;2022-08-01T14:47:52;3.28;;;1.40;;
60472;SDS011;46318;52.716;6.444;2022-08-01T14:50:19;4.07;;;1.30;;
60472;SDS011;46318;52.716;6.444;2022-08-01T14:52:44;4.10;;;1.48;;
60472;SDS011;46318;52.716;6.444;2022-08-01T14:55:11;4.53;;;1.27;;
60472;SDS011;46318;52.716;6.444;2022-08-01T14:57:38;3.40;;;1.30;;
60472;SDS011;46318;52.716;6.444;2022-08-01T15:00:06;6.88;;;2.15;;
60472;SDS011;46318;52.716;6.444;2022-08-01T15:02:38;3.47;;;1.20;;
60472;SDS011;46318;52.716;6.444;2022-08-01T15:05:04;5.28;;;1.30;;
60472;SDS011;46318;52.716;6.444;2022-08-01T15:07:31;6.50;;;1.55;;
60472;SDS011;46318;52.716;6.444;2022-08-01T15:10:05;3.53;;;1.10;;
60472;SDS011;46318;52.716;6.444;2022-08-01T15:12:32;4.55;;;1.52;;
60472;SDS011;46318;52.716;6.444;2022-08-01T15:14:59;3.35;;;1.20;;
60472;SDS011;46318;52.716;6.444;2022-08-01T15:17:26;5.07;;;1.40;;
60472;SDS011;46318;52.716;6.444;2022-08-01T15:19:55;2.20;;;1.27;;
60472;SDS011;46318;52.716;6.444;2022-08-01T15:22:23;4.57;;;1.40;;
60472;SDS011;46318;52.716;6.444;2022-08-01T15:24:52;7.20;;;2.15;;
60472;SDS011;46318;52.716;6.444;2022-08-01T15:27:19;6.25;;;1.60;;
60472;SDS011;46318;52.716;6.444;2022-08-01T15:29:46;4.78;;;1.40;;
60472;SDS011;46318;52.716;6.444;2022-08-01T15:32:13;5.88;;;1.20;;
60472;SDS011;46318;52.716;6.444;2022-08-01T15:34:40;4.80;;;1.70;;
60472;SDS011;46318;52.716;6.444;2022-08-01T15:37:06;3.45;;;1.23;;
60472;SDS011;46318;52.716;6.444;2022-08-01T15:39:33;4.13;;;1.17;;
60472;SDS011;46318;52.716;6.444;2022-08-01T15:42:03;5.20;;;1.50;;
60472;SDS011;46318;52.716;6.444;2022-08-01T15:44:38;5.07;;;1.63;;
60472;SDS011;46318;52.716;6.444;2022-08-01T15:47:05;4.80;;;1.90;;
60472;SDS011;46318;52.716;6.444;2022-08-01T15:49:32;3.35;;;1.27;;
60472;SDS011;46318;52.716;6.444;2022-08-01T15:52:07;4.72;;;1.45;;
60472;SDS011;46318;52.716;6.444;2022-08-01T15:54:34;5.55;;;1.45;;